createdAt,value
2019-05-03T00:02:29.785Z,40.70
2019-05-03T00:05:23.296Z,40.77
2019-05-03T00:07:59.664Z,45.28
2019-05-03T00:10:32.819Z,38.92
2019-05-03T00:13:06.019Z,41.40
2019-05-03T00:15:38.592Z,46.05
2019-05-03T00:18:12.302Z,42.80
2019-05-03T00:20:44.841Z,46.15
2019-05-03T00:23:17.299Z,38.95
2019-05-03T00:25:50.054Z,45.38
2019-05-03T00:28:22.740Z,43.25
2019-05-03T00:30:55.309Z,46.63
2019-05-03T00:33:31.817Z,47.70
2019-05-03T00:36:12.316Z,42.60
2019-05-03T00:38:44.748Z,39.10
2019-05-03T00:41:17.326Z,44.18
2019-05-03T00:43:51.734Z,44.05
2019-05-03T00:46:23.802Z,43.23
2019-05-03T00:49:00.800Z,38.82
2019-05-03T00:51:33.279Z,39.47
2019-05-03T00:54:05.805Z,47.05
2019-05-03T00:56:38.396Z,40.08
2019-05-03T00:59:12.656Z,35.93
2019-05-03T01:01:45.319Z,40.33
2019-05-03T01:04:17.858Z,43.02
2019-05-03T01:06:50.304Z,41.77
2019-05-03T01:09:23.985Z,40.25
2019-05-03T01:12:01.950Z,38.90
2019-05-03T01:14:36.301Z,42.88
2019-05-03T01:17:08.414Z,35.10
2019-05-03T01:19:40.321Z,36.85
2019-05-03T01:22:12.710Z,38.60
2019-05-03T01:24:45.285Z,36.97
2019-05-03T01:27:17.641Z,42.50
2019-05-03T01:29:51.943Z,44.42
2019-05-03T01:32:25.204Z,41.10
2019-05-03T01:35:03.188Z,41.44
2019-05-03T01:37:35.888Z,41.40
2019-05-03T01:40:10.297Z,43.33
2019-05-03T01:42:46.330Z,38.05
2019-05-03T01:45:18.846Z,38.70
2019-05-03T01:47:59.019Z,38.23
2019-05-03T01:50:39.383Z,42.00
2019-05-03T01:53:13.319Z,41.02
2019-05-03T01:55:53.345Z,38.67
2019-05-03T01:58:27.655Z,41.75
2019-05-03T02:01:16.651Z,41.35
2019-05-03T02:04:06.817Z,38.73
2019-05-03T02:06:39.301Z,42.85
2019-05-03T02:09:12.201Z,41.58
2019-05-03T02:11:44.720Z,38.48
2019-05-03T02:14:17.312Z,45.25
2019-05-03T02:19:22.356Z,40.38
2019-05-03T02:21:54.306Z,43.17
2019-05-03T02:24:28.089Z,41.98
2019-05-03T02:27:02.167Z,39.23
2019-05-03T02:29:34.693Z,35.15
2019-05-03T02:32:07.301Z,44.33
2019-05-03T02:34:39.598Z,42.00
2019-05-03T02:37:13.866Z,39.18
2019-05-03T02:39:47.048Z,43.52
2019-05-03T02:42:19.720Z,46.37
2019-05-03T02:44:55.320Z,38.75
2019-05-03T02:50:05.978Z,40.40
2019-05-03T02:55:16.028Z,40.52
2019-05-03T02:57:47.469Z,39.73
2019-05-03T03:02:58.284Z,38.80
2019-05-03T03:05:31.518Z,43.52
2019-05-03T03:08:06.329Z,38.90
2019-05-03T03:10:45.338Z,36.63
2019-05-03T03:13:19.523Z,35.88
2019-05-03T03:15:55.455Z,34.03
2019-05-03T03:18:36.401Z,33.80
2019-05-03T03:21:20.869Z,39.88
2019-05-03T03:24:13.051Z,36.15
2019-05-03T03:26:47.296Z,38.15
2019-05-03T03:29:27.304Z,38.15
2019-05-03T03:32:20.047Z,38.70
2019-05-03T03:35:21.239Z,36.93
2019-05-03T03:40:25.532Z,37.03
2019-05-03T03:43:05.224Z,34.48
2019-05-03T03:45:39.546Z,40.08
2019-05-03T03:48:15.862Z,36.35
2019-05-03T03:50:52.296Z,44.55
2019-05-03T03:53:27.537Z,42.38
2019-05-03T03:56:05.554Z,41.20
2019-05-03T03:58:38.459Z,44.98
2019-05-03T04:01:15.526Z,47.85
2019-05-03T04:03:47.364Z,44.73
2019-05-03T04:06:21.556Z,42.78
2019-05-03T04:08:56.114Z,49.45
2019-05-03T04:11:29.037Z,40.08
2019-05-03T04:14:01.572Z,41.40
2019-05-03T04:16:58.181Z,41.67
2019-05-03T04:19:36.606Z,44.48
2019-05-03T04:22:09.415Z,42.90
2019-05-03T04:24:42.050Z,40.85
2019-05-03T04:27:22.742Z,43.13
2019-05-03T04:29:55.582Z,43.58
2019-05-03T04:32:29.249Z,45.56
2019-05-03T04:35:01.790Z,49.35
2019-05-03T04:37:35.895Z,46.15
2019-05-03T04:40:10.456Z,55.03
2019-05-03T04:42:46.806Z,53.38
2019-05-03T04:45:17.354Z,47.08
2019-05-03T04:47:49.720Z,51.63
2019-05-03T04:50:25.264Z,54.77
2019-05-03T04:52:56.927Z,45.98
2019-05-03T04:55:29.703Z,45.55
2019-05-03T04:58:04.647Z,43.63
2019-05-03T05:03:08.974Z,42.05
2019-05-03T05:05:41.738Z,41.37
2019-05-03T05:08:16.302Z,43.00
2019-05-03T05:10:48.398Z,39.67
2019-05-03T05:13:21.280Z,40.15
2019-05-03T05:15:55.067Z,41.90
2019-05-03T05:18:36.759Z,37.24
2019-05-03T05:21:11.306Z,39.53
2019-05-03T05:23:47.598Z,37.13
2019-05-03T05:26:24.877Z,39.20
2019-05-03T05:29:05.393Z,37.63
2019-05-03T05:31:37.894Z,35.25
2019-05-03T05:34:10.473Z,34.10
2019-05-03T05:36:45.075Z,43.20
2019-05-03T05:39:21.361Z,38.05
2019-05-03T05:41:55.458Z,38.38
2019-05-03T05:44:29.319Z,34.34
2019-05-03T05:47:04.691Z,32.75
2019-05-03T05:49:55.011Z,32.55
2019-05-03T05:52:29.354Z,34.35
2019-05-03T05:55:04.632Z,36.77
2019-05-03T05:57:45.014Z,33.85
2019-05-03T06:00:25.637Z,30.00
2019-05-03T06:02:59.501Z,30.06
2019-05-03T06:05:32.047Z,26.93
2019-05-03T06:08:05.386Z,27.22
2019-05-03T06:10:42.354Z,34.93
2019-05-03T06:13:29.336Z,34.80
2019-05-03T06:16:10.980Z,24.80
2019-05-03T06:18:54.280Z,25.80
2019-05-03T06:21:26.293Z,24.40
2019-05-03T06:24:06.429Z,30.12
2019-05-03T06:26:40.404Z,27.23
2019-05-03T06:29:14.830Z,31.25
2019-05-03T06:31:48.849Z,37.53
2019-05-03T06:34:21.516Z,35.98
2019-05-03T06:36:55.566Z,38.23
2019-05-03T06:39:30.307Z,34.18
2019-05-03T06:42:05.071Z,32.30
2019-05-03T06:44:37.348Z,36.23
2019-05-03T06:47:10.592Z,32.23
2019-05-03T06:49:44.893Z,41.60
2019-05-03T06:52:19.629Z,37.30
2019-05-03T06:54:51.631Z,29.92
2019-05-03T06:57:25.409Z,21.68
2019-05-03T07:00:10.287Z,25.15
2019-05-03T07:02:44.762Z,24.90
2019-05-03T07:05:22.067Z,26.67
2019-05-03T07:08:15.146Z,21.87
2019-05-03T07:10:49.508Z,30.95
2019-05-03T07:13:22.303Z,24.45
2019-05-03T07:15:56.001Z,23.22
2019-05-03T07:21:16.743Z,19.40
2019-05-03T07:23:49.278Z,15.43
2019-05-03T07:26:21.764Z,14.58
2019-05-03T07:28:54.638Z,11.95
2019-05-03T07:31:27.302Z,15.63
2019-05-03T07:34:00.406Z,16.25
2019-05-03T07:36:32.854Z,14.03
2019-05-03T07:39:07.636Z,19.17
2019-05-03T07:41:40.269Z,13.90
2019-05-03T07:44:12.685Z,13.90
2019-05-03T07:46:45.364Z,12.50
2019-05-03T07:49:17.865Z,11.53
2019-05-03T07:51:50.756Z,9.85
2019-05-03T07:54:24.838Z,12.88
2019-05-03T07:56:59.225Z,9.75
2019-05-03T07:59:31.802Z,9.83
2019-05-03T08:02:05.566Z,9.98
2019-05-03T08:07:20.664Z,11.05
2019-05-03T08:09:46.050Z,12.03
2019-05-03T08:12:19.299Z,12.73
2019-05-03T08:14:51.841Z,14.30
2019-05-03T08:17:25.663Z,12.68
2019-05-03T08:19:59.671Z,13.55
2019-05-03T08:22:34.406Z,14.93
2019-05-03T08:25:09.313Z,17.85
2019-05-03T08:27:41.880Z,14.07
2019-05-03T08:30:16.710Z,10.70
2019-05-03T08:32:54.925Z,12.98
2019-05-03T08:35:35.434Z,17.00
2019-05-03T08:40:41.514Z,13.25
2019-05-03T08:45:47.844Z,11.95
2019-05-03T08:48:20.443Z,16.05
2019-05-03T08:50:55.288Z,12.98
2019-05-03T08:53:27.286Z,11.25
2019-05-03T08:56:01.395Z,11.78
2019-05-03T08:58:35.128Z,10.70
2019-05-03T09:01:09.470Z,13.00
2019-05-03T09:03:42.294Z,10.93
2019-05-03T09:06:15.519Z,11.88
2019-05-03T09:08:48.576Z,12.00
2019-05-03T09:11:31.836Z,10.25
2019-05-03T09:13:57.334Z,12.85
2019-05-03T09:16:31.572Z,8.00
2019-05-03T09:19:05.547Z,13.00
2019-05-03T09:21:38.627Z,12.53
2019-05-03T09:24:36.378Z,8.53
2019-05-03T09:27:09.342Z,9.73
2019-05-03T09:30:35.713Z,10.35
2019-05-03T09:37:07.867Z,8.23
2019-05-03T09:39:40.601Z,10.94
2019-05-03T09:42:14.908Z,9.45
2019-05-03T09:44:47.859Z,7.60
2019-05-03T12:10:52.303Z,7.28
2019-05-03T12:13:21.021Z,7.17
2019-05-03T12:15:55.267Z,6.97
2019-05-03T12:18:28.456Z,4.95
2019-05-03T12:21:07.218Z,7.20
2019-05-03T12:23:39.992Z,6.27
2019-05-03T12:26:14.716Z,5.40
2019-05-03T12:28:47.479Z,5.90
2019-05-03T12:31:31.757Z,4.53
2019-05-03T12:33:55.151Z,4.87
2019-05-03T12:36:27.263Z,5.77
2019-05-03T12:39:01.377Z,6.50
2019-05-03T12:41:35.414Z,5.03
2019-05-03T12:44:08.113Z,5.10
2019-05-03T12:46:45.035Z,4.58
2019-05-03T12:49:17.585Z,5.75
2019-05-03T12:51:50.333Z,6.60
2019-05-03T12:54:25.551Z,9.23
2019-05-03T12:56:58.273Z,7.58
2019-05-03T12:59:30.383Z,4.92
2019-05-03T13:02:07.100Z,6.07
2019-05-03T13:04:44.688Z,8.05
2019-05-03T13:09:51.776Z,4.75
2019-05-03T13:12:28.749Z,3.58
2019-05-03T13:15:51.766Z,6.62
2019-05-03T13:18:25.258Z,3.62
2019-05-03T13:20:58.037Z,4.85
2019-05-03T13:23:30.684Z,3.92
2019-05-03T13:26:06.737Z,6.46
2019-05-03T13:28:39.392Z,6.54
2019-05-03T13:33:58.884Z,3.45
2019-05-03T13:36:31.285Z,3.60
2019-05-03T13:39:13.965Z,6.20
2019-05-03T13:41:45.504Z,7.12
2019-05-03T13:44:18.418Z,4.20
2019-05-03T13:46:51.097Z,4.62
2019-05-03T13:49:23.410Z,5.50
2019-05-03T13:51:55.771Z,4.03
2019-05-03T13:54:28.337Z,3.17
2019-05-03T13:57:00.649Z,3.85
2019-05-03T13:59:35.021Z,5.90
2019-05-03T14:02:15.181Z,4.78
2019-05-03T14:04:50.197Z,4.10
2019-05-03T14:09:47.462Z,4.37
2019-05-03T14:12:19.871Z,4.28
2019-05-03T14:17:29.464Z,3.17
2019-05-03T14:20:06.331Z,2.90
2019-05-03T14:22:40.383Z,4.83
2019-05-03T14:25:12.791Z,4.47
2019-05-03T14:27:45.691Z,2.42
2019-05-03T14:30:20.285Z,5.87
2019-05-03T14:32:52.783Z,2.98
2019-05-03T14:35:25.289Z,3.42
2019-05-03T14:37:57.292Z,3.45
2019-05-03T14:40:29.263Z,3.25
2019-05-03T14:43:01.851Z,4.03
2019-05-03T14:45:35.303Z,5.14
2019-05-03T14:48:08.522Z,3.50
2019-05-03T14:50:41.354Z,2.25
2019-05-03T14:53:14.756Z,4.80
2019-05-03T14:55:49.316Z,1.32
2019-05-03T14:58:32.373Z,1.03
2019-05-03T15:01:12.395Z,6.30
2019-05-03T15:03:45.218Z,1.70
2019-05-03T15:06:17.793Z,2.62
2019-05-03T15:08:50.498Z,2.37
2019-05-03T15:11:23.018Z,5.28
2019-05-03T15:13:57.297Z,2.77
2019-05-03T15:19:02.394Z,2.67
2019-05-03T15:21:35.809Z,3.65
2019-05-03T15:26:40.288Z,4.44
2019-05-03T15:31:47.282Z,5.93
2019-05-03T15:34:20.810Z,1.87
2019-05-03T15:36:54.707Z,2.08
2019-05-03T15:39:27.782Z,2.80
2019-05-03T15:42:05.297Z,1.95
2019-05-03T15:44:54.391Z,2.60
2019-05-03T15:47:44.615Z,2.87
2019-05-03T15:52:50.259Z,3.60
2019-05-03T15:55:26.047Z,2.77
2019-05-03T15:57:58.681Z,4.35
2019-05-03T16:00:31.576Z,3.67
2019-05-03T16:03:08.878Z,4.37
2019-05-03T16:05:38.395Z,4.72
2019-05-03T16:08:10.878Z,4.02
2019-05-03T16:10:45.528Z,3.80
2019-05-03T16:13:22.453Z,7.73
2019-05-03T16:18:28.599Z,4.37
2019-05-03T16:21:01.128Z,5.92
2019-05-03T16:23:35.346Z,6.55
2019-05-03T16:26:14.350Z,4.40
2019-05-03T16:28:48.291Z,3.67
2019-05-03T16:31:22.249Z,6.33
2019-05-03T16:33:55.233Z,3.72
2019-05-03T16:36:27.835Z,5.22
2019-05-03T16:39:00.586Z,5.08
2019-05-03T16:41:35.390Z,4.72
2019-05-03T16:44:07.784Z,4.53
2019-05-03T16:46:40.395Z,6.15
2019-05-03T16:49:12.831Z,4.07
2019-05-03T16:51:46.404Z,5.95
2019-05-03T16:54:18.855Z,5.03
2019-05-03T16:56:51.338Z,5.17
2019-05-03T16:59:24.760Z,4.33
2019-05-03T17:01:57.421Z,3.83
2019-05-03T17:04:34.623Z,6.35
2019-05-03T17:07:15.131Z,6.10
2019-05-03T17:09:49.300Z,7.05
2019-05-03T17:12:25.746Z,10.30
2019-05-03T17:14:58.622Z,5.22
2019-05-03T17:17:31.311Z,5.67
2019-05-03T17:20:05.210Z,6.08
2019-05-03T17:22:37.775Z,5.08
2019-05-03T17:25:10.362Z,3.80
2019-05-03T17:27:44.818Z,6.78
2019-05-03T17:30:17.485Z,5.72
2019-05-03T17:32:49.901Z,4.97
2019-05-03T17:35:22.311Z,4.92
2019-05-03T17:37:55.048Z,3.70
2019-05-03T17:40:27.621Z,4.78
2019-05-03T17:43:05.034Z,6.60
2019-05-03T17:45:42.286Z,4.37
2019-05-03T17:48:14.987Z,6.20
2019-05-03T17:50:47.578Z,7.08
2019-05-03T17:53:27.667Z,6.03
2019-05-03T17:56:01.967Z,6.10
2019-05-03T17:58:52.838Z,11.90
2019-05-03T18:01:44.559Z,6.05
2019-05-03T18:04:21.363Z,6.37
2019-05-03T18:06:55.657Z,5.78
2019-05-03T18:09:30.314Z,6.03
2019-05-03T18:12:04.648Z,4.12
2019-05-03T18:14:37.783Z,4.38
2019-05-03T18:17:10.322Z,3.87
2019-05-03T18:19:44.696Z,3.72
2019-05-03T18:22:16.792Z,3.25
2019-05-03T18:24:49.301Z,3.85
2019-05-03T18:27:21.750Z,4.95
2019-05-03T18:29:55.434Z,10.35
2019-05-03T18:32:27.865Z,4.55
2019-05-03T18:35:00.367Z,3.83
2019-05-03T18:37:34.837Z,5.12
2019-05-03T18:40:10.341Z,3.42
2019-05-03T18:42:50.370Z,3.60
2019-05-03T18:45:42.295Z,4.85
2019-05-03T18:48:15.298Z,4.33
2019-05-03T18:50:47.740Z,4.70
2019-05-03T18:53:20.278Z,3.10
2019-05-03T18:55:52.833Z,5.17
2019-05-03T18:58:27.071Z,2.95
2019-05-03T19:00:59.694Z,4.53
2019-05-03T19:03:32.295Z,3.33
2019-05-03T19:06:14.302Z,2.98
2019-05-03T19:09:05.250Z,5.73
2019-05-03T19:11:47.315Z,5.60
2019-05-03T19:14:21.364Z,8.15
2019-05-03T19:17:01.464Z,3.77
2019-05-03T19:19:39.308Z,4.83
2019-05-03T19:22:12.297Z,4.67
2019-05-03T19:24:44.692Z,3.47
2019-05-03T19:27:17.307Z,4.12
2019-05-03T19:29:49.597Z,3.27
2019-05-03T19:32:22.319Z,5.75
2019-05-03T19:37:28.168Z,11.55
2019-05-03T19:40:00.586Z,16.55
2019-05-03T19:42:35.248Z,11.00
2019-05-03T19:45:09.311Z,11.80
2019-05-03T19:50:15.726Z,9.00
2019-05-03T19:53:06.530Z,5.80
2019-05-03T19:55:38.923Z,4.50
2019-05-03T19:58:11.417Z,7.92
2019-05-03T20:00:57.424Z,5.67
2019-05-03T20:03:36.023Z,4.17
2019-05-03T20:06:19.570Z,7.83
2019-05-03T20:08:56.529Z,6.28
2019-05-03T20:11:29.103Z,5.22
2019-05-03T20:14:01.708Z,5.67
2019-05-03T20:16:34.749Z,7.22
2019-05-03T20:19:17.671Z,5.04
2019-05-03T20:21:42.675Z,5.02
2019-05-03T20:24:15.290Z,4.78
2019-05-03T20:26:48.051Z,5.42
2019-05-03T20:29:20.451Z,3.93
2019-05-03T20:31:52.823Z,5.25
2019-05-03T20:34:25.314Z,3.90
2019-05-03T20:36:57.613Z,3.40
2019-05-03T20:39:30.305Z,4.87
2019-05-03T20:42:04.441Z,8.78
2019-05-03T20:44:54.523Z,3.86
2019-05-03T20:47:28.556Z,6.40
2019-05-03T20:50:17.332Z,8.08
2019-05-03T20:52:49.759Z,6.78
2019-05-03T20:55:22.316Z,7.62
2019-05-03T20:57:56.507Z,6.80
2019-05-03T21:00:29.038Z,5.00
2019-05-03T21:03:01.452Z,5.90
2019-05-03T21:05:36.818Z,5.72
2019-05-03T21:08:08.422Z,7.42
2019-05-03T21:10:40.827Z,8.33
2019-05-03T21:13:14.622Z,9.24
2019-05-03T21:16:14.643Z,6.67
2019-05-03T21:18:56.311Z,8.43
2019-05-03T21:21:39.416Z,7.28
2019-05-03T21:24:19.315Z,14.05
2019-05-03T21:26:51.759Z,9.40
2019-05-03T21:29:24.311Z,7.35
2019-05-03T21:31:56.592Z,6.22
2019-05-03T21:34:29.075Z,10.75
2019-05-03T21:37:01.496Z,8.88
2019-05-03T21:39:34.855Z,7.28
2019-05-03T21:42:08.521Z,7.96
2019-05-03T21:44:40.882Z,9.35
2019-05-03T21:47:22.144Z,9.28
2019-05-03T21:49:56.346Z,10.08
2019-05-03T21:53:22.295Z,8.68
2019-05-03T21:55:56.647Z,10.75
2019-05-03T21:58:29.043Z,9.03
2019-05-03T22:01:05.060Z,9.20
2019-05-03T22:03:42.038Z,11.32
2019-05-03T22:06:15.410Z,9.65
2019-05-03T22:08:49.294Z,11.57
2019-05-03T22:11:21.272Z,8.18
2019-05-03T22:13:57.026Z,11.25
2019-05-03T22:16:45.015Z,12.93
2019-05-03T22:19:19.473Z,11.73
2019-05-03T22:22:05.604Z,14.20
2019-05-03T22:24:44.684Z,10.65
2019-05-03T22:27:17.317Z,11.23
2019-05-03T22:29:49.644Z,11.63
2019-05-03T22:32:22.304Z,10.85
2019-05-03T22:34:54.596Z,11.55
2019-05-03T22:37:27.055Z,9.23
2019-05-03T22:39:59.354Z,10.93
2019-05-03T22:42:34.439Z,9.65
2019-05-03T22:45:08.607Z,10.60
2019-05-03T22:47:41.314Z,12.13
2019-05-03T22:50:14.885Z,12.34
2019-05-03T22:52:47.698Z,11.12
2019-05-03T22:55:20.294Z,9.90
2019-05-03T22:57:54.587Z,11.18
2019-05-03T23:00:27.310Z,9.63
2019-05-03T23:03:02.806Z,11.80
2019-05-03T23:05:37.262Z,11.57
2019-05-03T23:08:11.169Z,9.70
2019-05-03T23:10:45.134Z,9.72
2019-05-03T23:13:18.298Z,11.12
2019-05-03T23:15:50.669Z,9.90
2019-05-03T23:18:24.650Z,11.68
2019-05-03T23:21:05.704Z,10.70
2019-05-03T23:23:54.657Z,9.22
2019-05-03T23:26:26.806Z,12.73
2019-05-03T23:28:59.321Z,12.28
2019-05-03T23:31:31.729Z,10.93
2019-05-03T23:34:04.941Z,12.85
2019-05-03T23:36:39.323Z,8.58
2019-05-03T23:39:11.842Z,12.78
2019-05-03T23:41:44.293Z,10.80
2019-05-03T23:44:18.302Z,9.50
2019-05-03T23:46:55.296Z,11.60
2019-05-03T23:49:27.662Z,12.40
2019-05-03T23:52:17.469Z,10.15
2019-05-03T23:54:49.804Z,12.03
2019-05-03T23:57:25.177Z,11.22
2019-05-03T23:59:58.295Z,9.30
